Time;durP1;ratioP1;P1;durP2;ratioP2;P2;SDS_P1;SDS_P2;PMS_P1;PMS_P2;Temp;Humidity;BMP_temperature;BMP_pressure;BME280_temperature;BME280_humidity;BME280_pressure;Samples;Min_cycle;Max_cycle;Signal;HPM_P1;HPM_P2
2021/08/18 00:01:32;;;;;;;;;;;15.20;99.90;;;;;;1867836;76;20232;-70
2021/08/18 00:03:59;;;;;;;;;;;15.30;99.90;;;;;;1840670;78;20197;-70
2021/08/18 00:06:26;;;;;;;;;;;15.20;99.90;;;;;;1831066;77;20180;-70
2021/08/18 00:08:53;;;;;;;;;;;15.20;99.90;;;;;;1869701;75;20166;-70
2021/08/18 00:11:19;;;;;;;;;;;15.30;99.90;;;;;;1872155;75;20167;-70
2021/08/18 00:13:46;;;;;;;;;;;15.30;99.90;;;;;;1865085;75;20191;-70
2021/08/18 00:16:13;;;;;;;;;;;15.30;99.90;;;;;;1833312;78;20215;-70
2021/08/18 00:18:40;;;;;;;;;;;15.30;99.90;;;;;;1839094;78;20137;-70
2021/08/18 00:21:07;;;;;;;;;;;15.30;99.90;;;;;;1833968;77;20214;-70
2021/08/18 00:23:33;;;;;;;;;;;15.30;99.90;;;;;;1821986;77;20214;-70
2021/08/18 00:26:00;;;;;;;;;;;15.30;99.90;;;;;;1884693;75;20165;-71
2021/08/18 00:28:27;;;;;;;;;;;15.30;99.90;;;;;;1890558;75;20179;-71
2021/08/18 00:30:54;;;;;;;;;;;15.20;99.90;;;;;;1885282;76;20124;-70
2021/08/18 00:33:20;;;;;;;;;;;15.20;99.90;;;;;;1884567;75;20131;-70
2021/08/18 00:35:47;;;;;;;;;;;15.20;99.90;;;;;;1854415;76;20165;-70
2021/08/18 00:38:14;;;;;;;;;;;15.20;99.90;;;;;;1889604;76;20133;-71
2021/08/18 00:40:41;;;;;;;;;;;15.20;99.90;;;;;;1876180;75;20179;-70
2021/08/18 00:43:08;;;;;;;;;;;15.20;99.90;;;;;;1887498;76;20405;-70
2021/08/18 00:45:34;;;;;;;;;;;15.20;99.90;;;;;;1858957;75;20114;-70
2021/08/18 00:48:01;;;;;;;;;;;15.20;99.90;;;;;;1887532;76;20441;-70
2021/08/18 00:50:28;;;;;;;;;;;15.20;99.90;;;;;;1887024;75;20163;-71
2021/08/18 00:52:56;;;;;;;;;;;15.20;99.90;;;;;;1868835;75;20214;-70
2021/08/18 00:55:24;;;;;;;;;;;15.20;99.90;;;;;;1879585;76;20168;-70
2021/08/18 00:57:51;;;;;;;;;;;15.10;99.90;;;;;;1889780;76;20179;-70
2021/08/18 01:00:19;;;;;;;;;;;15.10;99.90;;;;;;1875412;75;20177;-71
2021/08/18 01:02:46;;;;;;;;;;;15.10;99.90;;;;;;1884990;75;20159;-70
2021/08/18 01:05:21;;;;;;;;;;;15.10;99.90;;;;;;1888732;75;20112;-70
2021/08/18 01:07:49;;;;;;;;;;;15.10;99.90;;;;;;1882155;75;20260;-70
2021/08/18 01:10:17;;;;;;;;;;;15.10;99.90;;;;;;1877771;75;20491;-70
2021/08/18 01:12:44;;;;;;;;;;;15.10;99.90;;;;;;1890728;76;20163;-70
2021/08/18 01:15:12;;;;;;;;;;;15.00;99.90;;;;;;1890557;75;20404;-70
2021/08/18 01:17:41;;;;;;;;;;;15.10;99.90;;;;;;1886611;75;20448;-70
2021/08/18 01:20:09;;;;;;;;;;;15.10;99.90;;;;;;1888858;76;20470;-70
2021/08/18 01:22:36;;;;;;;;;;;15.10;99.90;;;;;;1874614;75;20124;-70
2021/08/18 01:25:04;;;;;;;;;;;15.00;99.90;;;;;;1866043;75;20304;-70
2021/08/18 01:27:31;;;;;;;;;;;15.00;99.90;;;;;;1862733;76;20279;-70
2021/08/18 01:29:57;;;;;;;;;;;15.00;99.90;;;;;;1886559;76;20183;-70
2021/08/18 01:32:24;;;;;;;;;;;15.00;99.90;;;;;;1874501;76;20399;-70
2021/08/18 01:34:51;;;;;;;;;;;15.00;99.90;;;;;;1878375;76;20179;-70
2021/08/18 01:37:18;;;;;;;;;;;15.00;99.90;;;;;;1886966;76;20386;-70
2021/08/18 01:39:45;;;;;;;;;;;15.00;99.90;;;;;;1890256;75;20120;-70
2021/08/18 01:42:11;;;;;;;;;;;15.00;99.90;;;;;;1889002;75;20160;-70
2021/08/18 01:44:38;;;;;;;;;;;15.00;99.90;;;;;;1862948;75;20174;-70
2021/08/18 01:47:05;;;;;;;;;;;15.00;99.90;;;;;;1845650;78;20122;-70
2021/08/18 01:49:32;;;;;;;;;;;15.10;99.90;;;;;;1868027;75;20290;-70
2021/08/18 01:51:59;;;;;;;;;;;15.10;99.90;;;;;;1875705;75;20208;-70
2021/08/18 01:54:25;;;;;;;;;;;15.10;99.90;;;;;;1875143;75;20182;-70
2021/08/18 01:56:52;;;;;;;;;;;15.00;99.90;;;;;;1875623;75;20193;-70
2021/08/18 01:59:19;;;;;;;;;;;15.10;99.90;;;;;;1861294;75;20133;-70
2021/08/18 02:01:46;;;;;;;;;;;15.10;99.90;;;;;;1859627;75;20301;-70
2021/08/18 02:04:13;;;;;;;;;;;15.10;99.90;;;;;;1856694;76;20181;-70
2021/08/18 02:06:39;;;;;;;;;;;15.10;99.90;;;;;;1880428;75;20152;-70
2021/08/18 02:09:06;;;;;;;;;;;15.10;99.90;;;;;;1875583;75;20170;-70
2021/08/18 02:11:33;;;;;;;;;;;15.10;99.90;;;;;;1863801;76;20164;-70
2021/08/18 02:14:00;;;;;;;;;;;15.10;99.90;;;;;;1886654;75;20192;-70
2021/08/18 02:16:27;;;;;;;;;;;15.10;99.90;;;;;;1886859;76;20303;-70
2021/08/18 02:18:54;;;;;;;;;;;15.10;99.90;;;;;;1877948;75;20400;-70
2021/08/18 02:21:20;;;;;;;;;;;15.10;99.90;;;;;;1859550;75;20171;-70
2021/08/18 02:23:47;;;;;;;;;;;15.10;99.90;;;;;;1876654;75;20487;-70
2021/08/18 02:26:14;;;;;;;;;;;15.10;99.90;;;;;;1888510;75;20127;-70
2021/08/18 02:28:41;;;;;;;;;;;15.00;99.90;;;;;;1870100;76;20173;-70
2021/08/18 02:31:09;;;;;;;;;;;15.00;99.90;;;;;;1854895;76;20154;-70
2021/08/18 02:33:37;;;;;;;;;;;15.00;99.90;;;;;;1887517;75;20171;-70
2021/08/18 02:36:03;;;;;;;;;;;14.90;99.90;;;;;;1887529;76;20195;-70
2021/08/18 02:38:30;;;;;;;;;;;15.00;99.90;;;;;;1886931;75;20123;-70
2021/08/18 02:40:57;;;;;;;;;;;15.00;99.90;;;;;;1887412;75;20225;-70
2021/08/18 02:43:24;;;;;;;;;;;14.90;99.90;;;;;;1886617;75;20175;-70
2021/08/18 02:45:51;;;;;;;;;;;14.90;99.90;;;;;;1887545;75;20116;-70
2021/08/18 02:48:17;;;;;;;;;;;14.90;99.90;;;;;;1849464;75;20162;-70
2021/08/18 02:50:44;;;;;;;;;;;14.90;99.90;;;;;;1857471;76;20169;-70
2021/08/18 02:53:11;;;;;;;;;;;14.90;99.90;;;;;;1882567;75;20112;-70
2021/08/18 02:55:38;;;;;;;;;;;14.80;99.90;;;;;;1885810;75;20183;-70
2021/08/18 02:58:05;;;;;;;;;;;14.80;99.90;;;;;;1861501;75;20126;-70
2021/08/18 03:00:32;;;;;;;;;;;14.80;99.90;;;;;;1858571;75;20182;-71
2021/08/18 03:02:59;;;;;;;;;;;14.80;99.90;;;;;;1855708;75;20214;-71
2021/08/18 03:05:26;;;;;;;;;;;14.80;99.90;;;;;;1889686;75;20175;-70
2021/08/18 03:07:53;;;;;;;;;;;14.90;99.90;;;;;;1887492;75;20268;-70
2021/08/18 03:10:19;;;;;;;;;;;14.80;99.90;;;;;;1881056;76;20117;-71
2021/08/18 03:12:46;;;;;;;;;;;14.90;99.90;;;;;;1870050;75;20176;-70
2021/08/18 03:15:13;;;;;;;;;;;14.90;99.90;;;;;;1889068;75;20171;-70
2021/08/18 03:17:40;;;;;;;;;;;14.90;99.90;;;;;;1890375;75;20175;-70
2021/08/18 03:20:07;;;;;;;;;;;14.90;99.90;;;;;;1881681;75;20251;-69
2021/08/18 03:22:35;;;;;;;;;;;14.90;99.90;;;;;;1890251;76;20285;-70
2021/08/18 03:25:03;;;;;;;;;;;14.80;99.90;;;;;;1885938;75;20116;-70
2021/08/18 03:27:30;;;;;;;;;;;14.90;99.90;;;;;;1883397;75;20136;-70
2021/08/18 03:29:57;;;;;;;;;;;14.90;99.90;;;;;;1854330;77;20200;-71
2021/08/18 03:32:23;;;;;;;;;;;14.90;99.90;;;;;;1871333;75;20456;-71
2021/08/18 03:34:50;;;;;;;;;;;14.90;99.90;;;;;;1881834;75;20110;-70
2021/08/18 03:37:17;;;;;;;;;;;14.90;99.90;;;;;;1855055;75;20526;-70
2021/08/18 03:39:44;;;;;;;;;;;14.90;99.90;;;;;;1877201;75;20124;-71
2021/08/18 03:42:11;;;;;;;;;;;14.90;99.90;;;;;;1874904;75;20435;-71
2021/08/18 03:44:37;;;;;;;;;;;14.90;99.90;;;;;;1885711;76;20175;-70
2021/08/18 03:47:04;;;;;;;;;;;14.90;99.90;;;;;;1888229;75;20439;-70
2021/08/18 03:49:31;;;;;;;;;;;14.90;99.90;;;;;;1883212;75;20447;-70
2021/08/18 03:51:58;;;;;;;;;;;14.90;99.90;;;;;;1890298;76;20206;-70
2021/08/18 03:54:25;;;;;;;;;;;14.90;99.90;;;;;;1875665;75;20384;-70
2021/08/18 03:56:52;;;;;;;;;;;14.90;99.90;;;;;;1853875;77;20211;-70
2021/08/18 03:59:18;;;;;;;;;;;14.90;99.90;;;;;;1866695;75;20175;-70
2021/08/18 04:01:45;;;;;;;;;;;14.90;99.90;;;;;;1889302;75;20172;-70
2021/08/18 04:04:12;;;;;;;;;;;14.80;99.90;;;;;;1885675;75;20205;-70
2021/08/18 04:06:39;;;;;;;;;;;14.90;99.90;;;;;;1890691;76;20405;-70
2021/08/18 04:09:06;;;;;;;;;;;14.80;99.90;;;;;;1876035;75;20226;-70
2021/08/18 04:11:32;;;;;;;;;;;14.80;99.90;;;;;;1855435;75;20450;-70
2021/08/18 04:13:59;;;;;;;;;;;14.90;99.90;;;;;;1886181;75;20165;-70
2021/08/18 04:16:26;;;;;;;;;;;14.80;99.90;;;;;;1878826;75;20166;-70
2021/08/18 04:18:53;;;;;;;;;;;14.90;99.90;;;;;;1869728;75;20226;-70
2021/08/18 04:21:20;;;;;;;;;;;14.90;99.90;;;;;;1887263;76;20125;-70
2021/08/18 04:23:46;;;;;;;;;;;14.90;99.90;;;;;;1878860;75;20490;-70
2021/08/18 04:26:13;;;;;;;;;;;14.90;99.90;;;;;;1872503;75;20163;-70
2021/08/18 04:28:40;;;;;;;;;;;15.00;99.90;;;;;;1880756;75;20167;-69
2021/08/18 04:31:07;;;;;;;;;;;15.00;99.90;;;;;;1869620;75;20170;-70
2021/08/18 04:33:34;;;;;;;;;;;15.00;99.90;;;;;;1863355;75;20152;-70
2021/08/18 04:36:01;;;;;;;;;;;15.00;99.90;;;;;;1887444;76;20257;-70
2021/08/18 04:38:27;;;;;;;;;;;15.00;99.90;;;;;;1886386;75;20187;-71
2021/08/18 04:40:54;;;;;;;;;;;15.00;99.90;;;;;;1861048;75;20126;-70
2021/08/18 04:43:21;;;;;;;;;;;15.00;99.90;;;;;;1879535;75;20210;-70
2021/08/18 04:45:48;;;;;;;;;;;15.00;99.90;;;;;;1868021;75;20169;-70
2021/08/18 04:48:15;;;;;;;;;;;15.00;99.90;;;;;;1854204;77;20154;-70
2021/08/18 04:50:41;;;;;;;;;;;15.00;99.90;;;;;;1883708;75;20212;-70
2021/08/18 04:53:09;;;;;;;;;;;15.00;99.90;;;;;;1885025;76;20155;-70
2021/08/18 04:55:36;;;;;;;;;;;15.10;99.90;;;;;;1862919;75;20169;-70
2021/08/18 04:58:03;;;;;;;;;;;15.00;99.90;;;;;;1854179;75;20432;-70
2021/08/18 05:00:30;;;;;;;;;;;15.10;99.90;;;;;;1857686;75;20247;-70
2021/08/18 05:02:56;;;;;;;;;;;15.10;99.90;;;;;;1888461;75;20175;-70
2021/08/18 05:05:23;;;;;;;;;;;15.10;99.90;;;;;;1890532;76;20486;-70
2021/08/18 05:07:51;;;;;;;;;;;15.10;99.90;;;;;;1882872;75;20222;-70
2021/08/18 05:10:19;;;;;;;;;;;15.10;99.90;;;;;;1884879;75;20184;-69
2021/08/18 05:12:46;;;;;;;;;;;15.10;99.90;;;;;;1875071;75;20250;-69
2021/08/18 05:15:13;;;;;;;;;;;15.20;99.90;;;;;;1875432;75;20183;-70
2021/08/18 05:17:40;;;;;;;;;;;15.10;99.90;;;;;;1875728;75;20119;-69
2021/08/18 05:20:07;;;;;;;;;;;15.20;99.90;;;;;;1869903;73;20167;-73
2021/08/18 05:22:34;;;;;;;;;;;15.20;99.90;;;;;;1863581;75;20502;-75
2021/08/18 05:25:00;;;;;;;;;;;15.20;99.90;;;;;;1867740;75;20220;-74
2021/08/18 05:27:27;;;;;;;;;;;15.20;99.90;;;;;;1866336;77;20464;-75
2021/08/18 05:29:54;;;;;;;;;;;15.20;99.90;;;;;;1865808;75;20239;-74
2021/08/18 05:32:21;;;;;;;;;;;15.20;99.90;;;;;;1839224;76;20477;-74
2021/08/18 05:34:47;;;;;;;;;;;15.20;99.90;;;;;;1836052;76;20194;-74
2021/08/18 05:37:14;;;;;;;;;;;15.20;99.90;;;;;;1838933;76;20445;-74
2021/08/18 05:39:41;;;;;;;;;;;15.30;99.90;;;;;;1832295;76;20204;-73
2021/08/18 05:42:08;;;;;;;;;;;15.30;99.90;;;;;;1836980;76;20113;-74
2021/08/18 05:44:35;;;;;;;;;;;15.20;99.90;;;;;;1848066;77;20152;-73
2021/08/18 05:47:02;;;;;;;;;;;15.20;99.90;;;;;;1851541;77;20171;-74
2021/08/18 05:49:29;;;;;;;;;;;15.20;99.90;;;;;;1837767;76;20206;-73
2021/08/18 05:51:56;;;;;;;;;;;15.20;99.90;;;;;;1831057;76;20235;-72
2021/08/18 05:54:23;;;;;;;;;;;15.20;99.90;;;;;;1840607;76;20183;-75
2021/08/18 05:56:52;;;;;;;;;;;15.20;99.90;;;;;;1838311;76;20173;-74
2021/08/18 05:59:18;;;;;;;;;;;15.20;99.90;;;;;;1830089;76;20231;-73
2021/08/18 06:01:45;;;;;;;;;;;15.30;99.90;;;;;;1834799;77;20161;-73
2021/08/18 06:04:12;;;;;;;;;;;15.20;99.90;;;;;;1833892;76;20273;-74
2021/08/18 06:06:39;;;;;;;;;;;15.20;99.90;;;;;;1831150;76;20123;-73
2021/08/18 06:09:06;;;;;;;;;;;15.20;99.90;;;;;;1841827;76;20174;-73
2021/08/18 06:11:33;;;;;;;;;;;15.20;99.90;;;;;;1840622;76;20191;-73
2021/08/18 06:13:59;;;;;;;;;;;15.30;99.90;;;;;;1841284;78;20163;-74
2021/08/18 06:16:26;;;;;;;;;;;15.30;99.90;;;;;;1841842;78;20222;-74
2021/08/18 06:18:53;;;;;;;;;;;15.30;99.90;;;;;;1841848;78;20181;-73
2021/08/18 06:21:20;;;;;;;;;;;15.30;99.90;;;;;;1842751;77;20154;-73
2021/08/18 06:23:47;;;;;;;;;;;15.20;99.90;;;;;;1839045;78;20187;-74
2021/08/18 06:26:14;;;;;;;;;;;15.30;99.90;;;;;;1844403;76;20123;-73
2021/08/18 06:28:41;;;;;;;;;;;15.30;99.90;;;;;;1837888;77;20244;-74
2021/08/18 06:31:07;;;;;;;;;;;15.30;99.90;;;;;;1847414;77;20176;-73
2021/08/18 06:33:34;;;;;;;;;;;15.30;99.90;;;;;;1856890;77;20159;-73
2021/08/18 06:36:02;;;;;;;;;;;15.30;99.90;;;;;;1839246;77;20209;-74
2021/08/18 06:38:29;;;;;;;;;;;15.30;99.90;;;;;;1841732;77;20127;-72
2021/08/18 06:40:57;;;;;;;;;;;15.20;99.90;;;;;;1845423;77;20231;-74
2021/08/18 06:43:23;;;;;;;;;;;15.20;99.90;;;;;;1833972;78;20243;-74
2021/08/18 06:45:50;;;;;;;;;;;15.30;99.90;;;;;;1841269;77;20123;-75
2021/08/18 06:48:17;;;;;;;;;;;15.20;99.90;;;;;;1839467;77;20338;-75
2021/08/18 06:50:44;;;;;;;;;;;15.30;99.90;;;;;;1851199;77;20208;-74
2021/08/18 06:53:11;;;;;;;;;;;15.40;99.90;;;;;;1837231;77;20135;-74
2021/08/18 06:55:37;;;;;;;;;;;15.40;99.90;;;;;;1838529;77;20249;-75
2021/08/18 06:58:04;;;;;;;;;;;15.40;99.90;;;;;;1838590;77;20200;-74
2021/08/18 07:00:31;;;;;;;;;;;15.40;99.90;;;;;;1838987;77;20185;-74
2021/08/18 07:02:58;;;;;;;;;;;15.50;99.90;;;;;;1841729;77;20176;-73
2021/08/18 07:05:31;;;;;;;;;;;15.50;99.90;;;;;;1843394;78;20212;-73
2021/08/18 07:07:53;;;;;;;;;;;15.50;99.90;;;;;;1841944;76;20180;-73
2021/08/18 07:10:20;;;;;;;;;;;15.60;99.90;;;;;;1836788;77;20197;-73
2021/08/18 07:12:47;;;;;;;;;;;15.50;99.90;;;;;;1832670;78;20973;-73
2021/08/18 07:15:15;;;;;;;;;;;15.50;99.90;;;;;;1856119;77;20116;-73
2021/08/18 07:17:41;;;;;;;;;;;15.50;99.90;;;;;;1840934;76;20245;-72
2021/08/18 07:20:09;;;;;;;;;;;15.60;99.90;;;;;;1835126;77;20580;-74
2021/08/18 07:22:35;;;;;;;;;;;15.60;99.90;;;;;;1834468;76;20117;-73
2021/08/18 07:25:02;;;;;;;;;;;15.60;99.90;;;;;;1835971;77;20214;-78
2021/08/18 07:27:29;;;;;;;;;;;15.60;99.90;;;;;;1830943;78;20463;-73
2021/08/18 07:29:57;;;;;;;;;;;15.70;99.90;;;;;;1831902;78;20127;-72
2021/08/18 07:32:24;;;;;;;;;;;15.70;99.90;;;;;;1839670;77;20166;-73
2021/08/18 07:34:50;;;;;;;;;;;15.70;99.90;;;;;;1832004;77;20169;-72
2021/08/18 07:37:17;;;;;;;;;;;15.80;99.90;;;;;;1837265;77;20462;-72
2021/08/18 07:39:44;;;;;;;;;;;15.80;99.90;;;;;;1835910;78;20228;-72
2021/08/18 07:42:13;;;;;;;;;;;15.80;99.90;;;;;;1840175;77;20182;-76
2021/08/18 07:44:41;;;;;;;;;;;15.80;99.90;;;;;;1838054;76;20451;-76
2021/08/18 07:47:08;;;;;;;;;;;15.80;99.90;;;;;;1839809;78;20240;-75
2021/08/18 07:49:34;;;;;;;;;;;15.80;99.90;;;;;;1838540;76;20123;-72
2021/08/18 07:52:01;;;;;;;;;;;15.80;99.90;;;;;;1831148;76;20170;-71
2021/08/18 07:54:28;;;;;;;;;;;15.80;99.90;;;;;;1833246;77;20234;-71
2021/08/18 07:56:55;;;;;;;;;;;15.80;99.90;;;;;;1834972;78;20131;-74
2021/08/18 07:59:21;;;;;;;;;;;15.80;99.90;;;;;;1834539;76;20243;-74
2021/08/18 08:01:48;;;;;;;;;;;15.80;99.90;;;;;;1832094;78;20177;-74
2021/08/18 08:04:15;;;;;;;;;;;15.80;99.90;;;;;;1834986;76;20123;-74
2021/08/18 08:06:42;;;;;;;;;;;15.80;99.90;;;;;;1836571;78;20174;-74
2021/08/18 08:09:09;;;;;;;;;;;15.90;99.90;;;;;;1832713;77;20128;-74
2021/08/18 08:11:36;;;;;;;;;;;15.90;99.90;;;;;;1832788;77;20122;-74
2021/08/18 08:14:02;;;;;;;;;;;15.90;99.90;;;;;;1831482;78;20256;-74
2021/08/18 08:16:29;;;;;;;;;;;16.00;99.90;;;;;;1833380;76;20123;-74
2021/08/18 08:18:56;;;;;;;;;;;16.00;99.90;;;;;;1837688;78;20815;-74
2021/08/18 08:21:24;;;;;;;;;;;16.10;99.90;;;;;;1844827;76;20166;-74
2021/08/18 08:23:51;;;;;;;;;;;16.10;99.90;;;;;;1839267;76;20179;-73
2021/08/18 08:26:18;;;;;;;;;;;16.10;99.90;;;;;;1834961;76;20223;-72
2021/08/18 08:28:45;;;;;;;;;;;16.10;99.90;;;;;;1818278;78;20468;-71
2021/08/18 08:31:12;;;;;;;;;;;16.20;99.90;;;;;;1836573;76;20127;-70
2021/08/18 08:33:39;;;;;;;;;;;16.20;99.90;;;;;;1830041;76;20233;-69
2021/08/18 08:36:05;;;;;;;;;;;16.20;99.90;;;;;;1836251;76;20469;-73
2021/08/18 08:38:32;;;;;;;;;;;16.20;99.90;;;;;;1835622;76;20414;-77
2021/08/18 08:40:59;;;;;;;;;;;16.30;99.90;;;;;;1838317;76;20197;-73
2021/08/18 08:43:26;;;;;;;;;;;16.30;99.90;;;;;;1829919;76;20201;-73
2021/08/18 08:45:53;;;;;;;;;;;16.30;99.90;;;;;;1836351;76;20268;-72
2021/08/18 08:48:20;;;;;;;;;;;16.30;99.90;;;;;;1834565;76;20591;-74
2021/08/18 08:50:48;;;;;;;;;;;16.20;99.90;;;;;;1833747;76;20223;-73
2021/08/18 08:53:15;;;;;;;;;;;16.30;99.90;;;;;;1833845;76;20237;-70
2021/08/18 08:55:42;;;;;;;;;;;16.20;99.90;;;;;;1833700;76;20185;-71
2021/08/18 08:58:10;;;;;;;;;;;16.20;99.90;;;;;;1833907;76;20209;-72
2021/08/18 09:00:36;;;;;;;;;;;16.30;99.90;;;;;;1834802;76;20189;-72
2021/08/18 09:03:20;;;;;;;;;;;16.20;99.90;;;;;;1837417;76;20112;-72
2021/08/18 09:05:44;;;;;;;;;;;16.10;99.90;;;;;;1828390;76;20412;-73
2021/08/18 09:08:12;;;;;;;;;;;16.10;99.90;;;;;;1828235;76;20470;-73
2021/08/18 09:10:40;;;;;;;;;;;16.10;99.90;;;;;;1829322;76;20115;-73
2021/08/18 09:13:10;;;;;;;;;;;16.00;99.90;;;;;;1837830;76;20211;-72
2021/08/18 09:15:37;;;;;;;;;;;16.10;99.90;;;;;;1831958;76;20227;-75
2021/08/18 09:18:04;;;;;;;;;;;16.10;99.90;;;;;;1838106;76;20229;-74
2021/08/18 09:20:31;;;;;;;;;;;16.20;99.90;;;;;;1830085;76;20209;-74
2021/08/18 09:23:02;;;;;;;;;;;16.20;99.90;;;;;;1830630;76;20270;-74
2021/08/18 09:25:36;;;;;;;;;;;16.20;99.90;;;;;;1822719;76;20274;-72
2021/08/18 09:28:04;;;;;;;;;;;16.30;99.90;;;;;;1833515;76;20175;-70
2021/08/18 09:30:32;;;;;;;;;;;16.40;99.90;;;;;;1832024;76;20180;-73
2021/08/18 09:33:00;;;;;;;;;;;16.50;99.90;;;;;;1832562;76;20171;-73
2021/08/18 09:35:29;;;;;;;;;;;16.40;99.90;;;;;;1838165;76;20224;-73
2021/08/18 09:38:07;;;;;;;;;;;16.50;99.90;;;;;;1837139;76;20123;-74
2021/08/18 09:40:39;;;;;;;;;;;16.70;99.90;;;;;;1831775;76;20483;-74
2021/08/18 09:43:10;;;;;;;;;;;16.70;99.90;;;;;;1833093;76;20216;-73
2021/08/18 09:45:39;;;;;;;;;;;16.80;99.90;;;;;;1834280;76;20395;-74
2021/08/18 09:48:07;;;;;;;;;;;16.80;99.90;;;;;;1832579;76;20539;-73
2021/08/18 09:50:41;;;;;;;;;;;16.80;99.90;;;;;;1831878;76;20222;-73
2021/08/18 09:53:10;;;;;;;;;;;16.80;99.90;;;;;;1837468;76;20150;-72
2021/08/18 09:55:37;;;;;;;;;;;16.80;99.90;;;;;;1833821;76;20480;-73
2021/08/18 09:58:06;;;;;;;;;;;16.80;99.90;;;;;;1835359;76;20220;-73
2021/08/18 10:00:33;;;;;;;;;;;16.80;99.90;;;;;;1829532;76;20253;-73
2021/08/18 10:02:59;;;;;;;;;;;16.80;99.90;;;;;;1831381;76;20127;-73
2021/08/18 10:05:29;;;;;;;;;;;16.70;99.90;;;;;;1831325;76;20210;-73
2021/08/18 10:07:55;;;;;;;;;;;16.70;99.90;;;;;;1832014;76;20412;-72
2021/08/18 10:10:22;;;;;;;;;;;16.80;99.90;;;;;;1830479;76;20868;-71
2021/08/18 10:12:49;;;;;;;;;;;16.80;99.90;;;;;;1835154;76;20246;-71
2021/08/18 10:15:15;;;;;;;;;;;16.90;99.90;;;;;;1833857;76;20280;-76
2021/08/18 10:17:42;;;;;;;;;;;16.90;99.90;;;;;;1834254;76;20225;-72
2021/08/18 10:20:10;;;;;;;;;;;17.00;99.90;;;;;;1834919;76;20166;-72
2021/08/18 10:22:38;;;;;;;;;;;17.00;99.90;;;;;;1832144;76;20225;-72
2021/08/18 10:25:22;;;;;;;;;;;17.00;99.90;;;;;;1834171;76;20225;-77
2021/08/18 10:27:48;;;;;;;;;;;17.00;99.90;;;;;;1797098;78;20520;-73
2021/08/18 10:30:25;;;;;;;;;;;17.10;99.90;;;;;;1821933;76;20163;-73
2021/08/18 10:32:52;;;;;;;;;;;17.10;99.90;;;;;;1832496;76;20139;-73
2021/08/18 10:35:36;;;;;;;;;;;17.10;99.90;;;;;;1832706;76;20277;-73
2021/08/18 10:38:21;;;;;;;;;;;17.10;99.90;;;;;;1834172;76;20222;-73
2021/08/18 10:40:48;;;;;;;;;;;17.00;99.90;;;;;;1834009;76;20170;-72
2021/08/18 10:43:32;;;;;;;;;;;17.10;99.90;;;;;;1838869;76;20120;-73
2021/08/18 10:45:59;;;;;;;;;;;17.10;99.90;;;;;;1835817;76;20494;-72
2021/08/18 10:48:27;;;;;;;;;;;17.10;99.90;;;;;;1834007;76;20564;-71
2021/08/18 10:50:55;;;;;;;;;;;17.20;99.90;;;;;;1829206;76;20447;-69
2021/08/18 10:53:28;;;;;;;;;;;17.30;99.90;;;;;;1834301;76;20224;-69
2021/08/18 10:55:55;;;;;;;;;;;17.30;99.90;;;;;;1829923;76;20127;-70
2021/08/18 10:58:29;;;;;;;;;;;17.30;99.90;;;;;;1837896;76;20190;-70
2021/08/18 11:00:55;;;;;;;;;;;17.30;99.90;;;;;;1836509;76;20161;-76
2021/08/18 11:03:26;;;;;;;;;;;17.40;99.90;;;;;;1832753;77;20172;-72
2021/08/18 11:05:52;;;;;;;;;;;17.50;99.90;;;;;;1835374;76;20237;-72
2021/08/18 11:08:24;;;;;;;;;;;17.50;99.90;;;;;;1834253;76;20194;-74
2021/08/18 11:10:57;;;;;;;;;;;17.50;99.90;;;;;;1836407;76;20174;-70
2021/08/18 11:13:40;;;;;;;;;;;17.60;99.90;;;;;;1831116;76;20531;-71
2021/08/18 11:16:17;;;;;;;;;;;17.80;99.90;;;;;;1832000;77;20162;-69
2021/08/18 11:18:46;;;;;;;;;;;17.90;99.90;;;;;;1834974;78;20190;-71
2021/08/18 11:21:20;;;;;;;;;;;17.90;99.90;;;;;;1833816;78;20228;-70
2021/08/18 11:23:51;;;;;;;;;;;17.90;99.90;;;;;;1835077;78;20213;-70
2021/08/18 11:26:23;;;;;;;;;;;18.00;99.90;;;;;;1832991;76;20428;-69
2021/08/18 11:28:54;;;;;;;;;;;18.00;99.90;;;;;;1832538;77;20432;-71
2021/08/18 11:31:22;;;;;;;;;;;18.00;99.90;;;;;;1833968;77;20193;-69
2021/08/18 11:33:49;;;;;;;;;;;17.90;99.90;;;;;;1831686;76;20240;-70
2021/08/18 11:36:16;;;;;;;;;;;17.90;99.90;;;;;;1835054;76;20185;-70
2021/08/18 11:38:43;;;;;;;;;;;17.80;99.90;;;;;;1835235;77;20558;-70
2021/08/18 11:41:10;;;;;;;;;;;17.80;99.90;;;;;;1835051;78;20177;-70
2021/08/18 11:43:38;;;;;;;;;;;17.90;99.90;;;;;;1834475;77;20832;-69
2021/08/18 11:46:05;;;;;;;;;;;17.90;99.90;;;;;;1831020;77;20201;-77
2021/08/18 11:48:33;;;;;;;;;;;18.00;99.90;;;;;;1833961;78;20471;-72
2021/08/18 11:51:01;;;;;;;;;;;18.00;99.90;;;;;;1835154;77;20182;-71
2021/08/18 11:53:28;;;;;;;;;;;18.00;99.90;;;;;;1838331;77;20725;-73
2021/08/18 11:55:59;;;;;;;;;;;18.00;99.90;;;;;;1831888;76;20291;-71
2021/08/18 11:58:32;;;;;;;;;;;18.10;99.90;;;;;;1832775;77;20182;-73
2021/08/18 12:01:02;;;;;;;;;;;18.10;99.90;;;;;;1832784;76;20251;-75
2021/08/18 12:03:29;;;;;;;;;;;18.20;99.90;;;;;;1831342;76;20131;-71
2021/08/18 12:06:00;;;;;;;;;;;18.30;99.90;;;;;;1835592;76;20186;-73
2021/08/18 12:08:38;;;;;;;;;;;18.30;99.90;;;;;;1831063;78;20235;-75
2021/08/18 12:11:05;;;;;;;;;;;18.30;99.90;;;;;;1834077;78;20183;-74
2021/08/18 12:13:42;;;;;;;;;;;18.30;99.90;;;;;;1834374;78;20658;-76
2021/08/18 12:16:25;;;;;;;;;;;18.20;99.90;;;;;;1835530;76;20124;-73
2021/08/18 12:18:54;;;;;;;;;;;18.10;99.90;;;;;;1836949;76;20249;-72
2021/08/18 12:21:28;;;;;;;;;;;18.10;99.90;;;;;;1836564;76;20667;-70
2021/08/18 12:23:54;;;;;;;;;;;18.10;99.90;;;;;;1833268;76;20219;-73
2021/08/18 12:26:25;;;;;;;;;;;18.00;99.90;;;;;;1834511;76;20166;-71
2021/08/18 12:28:52;;;;;;;;;;;18.00;99.90;;;;;;1821079;76;20260;-75
2021/08/18 12:31:19;;;;;;;;;;;17.90;99.90;;;;;;1832290;76;20222;-69
2021/08/18 12:33:48;;;;;;;;;;;18.00;99.90;;;;;;1835715;76;20223;-73
2021/08/18 12:36:16;;;;;;;;;;;17.90;99.90;;;;;;1833973;76;20159;-71
2021/08/18 12:38:55;;;;;;;;;;;17.90;99.90;;;;;;1834981;78;20150;-70
2021/08/18 12:41:25;;;;;;;;;;;17.90;99.90;;;;;;1834708;76;20198;-69
2021/08/18 12:44:15;;;;;;;;;;;17.90;99.90;;;;;;1833847;77;20229;-71
2021/08/18 12:46:41;;;;;;;;;;;17.90;99.90;;;;;;1834312;76;20447;-73
2021/08/18 12:49:25;;;;;;;;;;;17.90;99.90;;;;;;1836960;76;20192;-71
2021/08/18 12:51:52;;;;;;;;;;;17.90;99.90;;;;;;1825907;76;20486;-71
2021/08/18 12:54:19;;;;;;;;;;;17.90;99.90;;;;;;1835638;76;20183;-71
2021/08/18 12:56:46;;;;;;;;;;;17.90;99.90;;;;;;1836286;78;20214;-70
2021/08/18 12:59:13;;;;;;;;;;;18.00;99.90;;;;;;1832374;76;20226;-71
2021/08/18 13:01:40;;;;;;;;;;;18.10;99.90;;;;;;1834913;77;20225;-71
2021/08/18 13:04:06;;;;;;;;;;;18.10;99.90;;;;;;1835192;78;20217;-71
2021/08/18 13:06:33;;;;;;;;;;;18.20;99.90;;;;;;1833890;78;20114;-72
2021/08/18 13:09:00;;;;;;;;;;;18.20;99.90;;;;;;1838762;76;20214;-70
2021/08/18 13:11:27;;;;;;;;;;;18.10;99.90;;;;;;1832591;76;20184;-71
2021/08/18 13:13:54;;;;;;;;;;;18.20;99.90;;;;;;1836263;76;20148;-72
2021/08/18 13:16:20;;;;;;;;;;;18.20;99.90;;;;;;1837490;76;20427;-70
2021/08/18 13:18:48;;;;;;;;;;;18.30;99.90;;;;;;1832805;76;20252;-70
2021/08/18 13:21:15;;;;;;;;;;;18.30;99.90;;;;;;1834626;77;20467;-71
2021/08/18 13:23:42;;;;;;;;;;;18.30;99.90;;;;;;1835138;77;20246;-71
2021/08/18 13:26:09;;;;;;;;;;;18.20;99.90;;;;;;1833349;78;20235;-70
2021/08/18 13:28:35;;;;;;;;;;;18.20;99.90;;;;;;1833167;76;20227;-71
2021/08/18 13:31:02;;;;;;;;;;;18.20;99.90;;;;;;1832225;77;20127;-71
2021/08/18 13:33:29;;;;;;;;;;;18.20;99.90;;;;;;1833646;76;20256;-71
2021/08/18 13:35:56;;;;;;;;;;;18.20;99.90;;;;;;1839002;77;20224;-70
2021/08/18 13:38:22;;;;;;;;;;;18.20;99.90;;;;;;1831055;76;20115;-71
2021/08/18 13:40:49;;;;;;;;;;;18.10;99.90;;;;;;1835330;76;20174;-71
2021/08/18 13:43:16;;;;;;;;;;;18.10;99.90;;;;;;1833612;76;20718;-70
2021/08/18 13:45:43;;;;;;;;;;;18.10;99.90;;;;;;1835972;76;20239;-70
2021/08/18 13:48:10;;;;;;;;;;;18.10;99.90;;;;;;1835423;77;20228;-72
2021/08/18 13:50:36;;;;;;;;;;;18.10;99.90;;;;;;1835758;76;20288;-71
2021/08/18 13:53:03;;;;;;;;;;;18.20;99.90;;;;;;1836506;76;20599;-70
2021/08/18 13:55:30;;;;;;;;;;;18.20;99.90;;;;;;1839784;76;20229;-69
2021/08/18 13:57:58;;;;;;;;;;;18.20;99.90;;;;;;1837143;76;20112;-69
2021/08/18 14:00:25;;;;;;;;;;;18.20;99.90;;;;;;1833889;76;20178;-69
2021/08/18 14:02:51;;;;;;;;;;;18.20;99.90;;;;;;1833314;76;20158;-69
2021/08/18 14:05:19;;;;;;;;;;;18.10;99.90;;;;;;1839152;76;20469;-71
2021/08/18 14:07:46;;;;;;;;;;;18.10;99.90;;;;;;1849313;76;20508;-78
2021/08/18 14:10:13;;;;;;;;;;;18.10;99.90;;;;;;1839287;76;20179;-76
2021/08/18 14:12:39;;;;;;;;;;;18.10;99.90;;;;;;1840159;76;20437;-71
2021/08/18 14:15:07;;;;;;;;;;;18.10;99.90;;;;;;1839563;76;20212;-73
2021/08/18 14:17:34;;;;;;;;;;;18.00;99.90;;;;;;1840475;77;20129;-73
2021/08/18 14:20:02;;;;;;;;;;;18.10;99.90;;;;;;1840627;76;20227;-74